sensor_id;sensor_type;location;lat;lon;timestamp;temperature;humidity
31084;DHT22;36333;51.382;0.016;2022-09-09T00:02:19;15.30;99.90
31084;DHT22;36333;51.382;0.016;2022-09-09T00:05:00;15.30;99.90
31084;DHT22;36333;51.382;0.016;2022-09-09T00:07:45;15.30;99.90
31084;DHT22;36333;51.382;0.016;2022-09-09T00:10:39;15.30;99.90
31084;DHT22;36333;51.382;0.016;2022-09-09T00:13:37;15.30;99.90
31084;DHT22;36333;51.382;0.016;2022-09-09T00:16:20;15.20;99.90
31084;DHT22;36333;51.382;0.016;2022-09-09T00:19:24;15.20;99.90
31084;DHT22;36333;51.382;0.016;2022-09-09T00:24:43;15.10;99.90
31084;DHT22;36333;51.382;0.016;2022-09-09T00:27:26;14.90;99.90
31084;DHT22;36333;51.382;0.016;2022-09-09T00:30:03;15.00;99.90
31084;DHT22;36333;51.382;0.016;2022-09-09T00:32:33;15.00;99.90
31084;DHT22;36333;51.382;0.016;2022-09-09T00:35:14;15.00;99.90
31084;DHT22;36333;51.382;0.016;2022-09-09T00:37:44;15.00;99.90
31084;DHT22;36333;51.382;0.016;2022-09-09T00:40:34;15.00;99.90
31084;DHT22;36333;51.382;0.016;2022-09-09T00:43:37;15.10;99.90
31084;DHT22;36333;51.382;0.016;2022-09-09T00:54:56;15.00;99.90
31084;DHT22;36333;51.382;0.016;2022-09-09T00:57:35;14.90;99.90
31084;DHT22;36333;51.382;0.016;2022-09-09T01:05:57;14.70;99.90
31084;DHT22;36333;51.382;0.016;2022-09-09T01:08:48;14.70;99.90
31084;DHT22;36333;51.382;0.016;2022-09-09T01:19:40;14.80;99.90
31084;DHT22;36333;51.382;0.016;2022-09-09T01:28:00;14.90;99.90
31084;DHT22;36333;51.382;0.016;2022-09-09T01:30:30;14.90;99.90
31084;DHT22;36333;51.382;0.016;2022-09-09T01:33:00;14.90;99.90
31084;DHT22;36333;51.382;0.016;2022-09-09T01:35:42;14.90;99.90
31084;DHT22;36333;51.382;0.016;2022-09-09T01:38:12;14.90;99.90
31084;DHT22;36333;51.382;0.016;2022-09-09T01:40:41;15.00;99.90
31084;DHT22;36333;51.382;0.016;2022-09-09T01:43:09;15.00;99.90
31084;DHT22;36333;51.382;0.016;2022-09-09T01:45:38;15.00;99.90
31084;DHT22;36333;51.382;0.016;2022-09-09T01:48:07;15.00;99.90
31084;DHT22;36333;51.382;0.016;2022-09-09T01:50:44;15.00;99.90
31084;DHT22;36333;51.382;0.016;2022-09-09T01:53:12;15.00;99.90
31084;DHT22;36333;51.382;0.016;2022-09-09T01:55:45;15.10;99.90
31084;DHT22;36333;51.382;0.016;2022-09-09T02:01:36;15.10;99.90
31084;DHT22;36333;51.382;0.016;2022-09-09T02:10:25;15.20;99.90
31084;DHT22;36333;51.382;0.016;2022-09-09T02:13:18;15.20;99.90
31084;DHT22;36333;51.382;0.016;2022-09-09T02:16:07;15.20;99.90
31084;DHT22;36333;51.382;0.016;2022-09-09T02:18:50;15.30;99.90
31084;DHT22;36333;51.382;0.016;2022-09-09T02:21:24;15.30;99.90
31084;DHT22;36333;51.382;0.016;2022-09-09T02:23:52;15.30;99.90
31084;DHT22;36333;51.382;0.016;2022-09-09T02:26:22;15.30;99.90
31084;DHT22;36333;51.382;0.016;2022-09-09T02:28:57;15.30;99.90
31084;DHT22;36333;51.382;0.016;2022-09-09T02:31:26;15.30;99.90
31084;DHT22;36333;51.382;0.016;2022-09-09T02:34:01;15.30;99.90
31084;DHT22;36333;51.382;0.016;2022-09-09T02:36:31;15.30;99.90
31084;DHT22;36333;51.382;0.016;2022-09-09T02:39:01;15.20;99.90
31084;DHT22;36333;51.382;0.016;2022-09-09T02:41:36;15.20;99.90
31084;DHT22;36333;51.382;0.016;2022-09-09T02:44:12;15.20;99.90
31084;DHT22;36333;51.382;0.016;2022-09-09T02:52:01;15.20;99.90
31084;DHT22;36333;51.382;0.016;2022-09-09T02:54:32;15.20;99.90
31084;DHT22;36333;51.382;0.016;2022-09-09T02:57:19;15.20;99.90
31084;DHT22;36333;51.382;0.016;2022-09-09T02:59:50;15.30;99.90
31084;DHT22;36333;51.382;0.016;2022-09-09T03:02:20;15.30;99.90
31084;DHT22;36333;51.382;0.016;2022-09-09T03:04:53;15.30;99.90
31084;DHT22;36333;51.382;0.016;2022-09-09T03:07:21;15.20;99.90
31084;DHT22;36333;51.382;0.016;2022-09-09T03:09:51;15.30;99.90
31084;DHT22;36333;51.382;0.016;2022-09-09T03:12:20;15.20;99.90
31084;DHT22;36333;51.382;0.016;2022-09-09T03:14:48;15.30;99.90
31084;DHT22;36333;51.382;0.016;2022-09-09T03:17:16;15.30;99.90
31084;DHT22;36333;51.382;0.016;2022-09-09T03:19:50;15.30;99.90
31084;DHT22;36333;51.382;0.016;2022-09-09T03:22:19;15.20;99.90
31084;DHT22;36333;51.382;0.016;2022-09-09T03:24:48;15.30;99.90
31084;DHT22;36333;51.382;0.016;2022-09-09T03:27:16;15.20;99.90
31084;DHT22;36333;51.382;0.016;2022-09-09T03:29:46;15.20;99.90
31084;DHT22;36333;51.382;0.016;2022-09-09T03:32:19;15.20;99.90
31084;DHT22;36333;51.382;0.016;2022-09-09T03:34:49;15.20;99.90
31084;DHT22;36333;51.382;0.016;2022-09-09T03:37:19;15.10;99.90
31084;DHT22;36333;51.382;0.016;2022-09-09T03:39:49;15.20;99.90
31084;DHT22;36333;51.382;0.016;2022-09-09T03:42:18;15.10;99.90
31084;DHT22;36333;51.382;0.016;2022-09-09T03:44:49;15.10;99.90
31084;DHT22;36333;51.382;0.016;2022-09-09T03:47:21;15.10;99.90
31084;DHT22;36333;51.382;0.016;2022-09-09T03:49:56;15.10;99.90
31084;DHT22;36333;51.382;0.016;2022-09-09T03:52:23;15.20;99.90
31084;DHT22;36333;51.382;0.016;2022-09-09T03:54:53;15.20;99.90
31084;DHT22;36333;51.382;0.016;2022-09-09T03:57:21;15.10;99.90
31084;DHT22;36333;51.382;0.016;2022-09-09T03:59:49;15.20;99.90
31084;DHT22;36333;51.382;0.016;2022-09-09T04:02:16;15.20;99.90
31084;DHT22;36333;51.382;0.016;2022-09-09T04:04:44;15.20;99.90
31084;DHT22;36333;51.382;0.016;2022-09-09T04:07:12;15.20;99.90
31084;DHT22;36333;51.382;0.016;2022-09-09T04:09:40;15.20;99.90
31084;DHT22;36333;51.382;0.016;2022-09-09T04:12:08;15.10;99.90
31084;DHT22;36333;51.382;0.016;2022-09-09T04:14:36;15.10;99.90
31084;DHT22;36333;51.382;0.016;2022-09-09T04:17:06;15.10;99.90
31084;DHT22;36333;51.382;0.016;2022-09-09T04:19:34;15.10;99.90
31084;DHT22;36333;51.382;0.016;2022-09-09T04:22:05;15.20;99.90
31084;DHT22;36333;51.382;0.016;2022-09-09T04:24:32;15.10;99.90
31084;DHT22;36333;51.382;0.016;2022-09-09T04:27:01;15.10;99.90
31084;DHT22;36333;51.382;0.016;2022-09-09T04:29:31;15.20;99.90
31084;DHT22;36333;51.382;0.016;2022-09-09T04:31:58;15.20;99.90
31084;DHT22;36333;51.382;0.016;2022-09-09T04:34:26;15.10;99.90
31084;DHT22;36333;51.382;0.016;2022-09-09T04:36:54;15.20;99.90
31084;DHT22;36333;51.382;0.016;2022-09-09T04:39:22;15.10;99.90
31084;DHT22;36333;51.382;0.016;2022-09-09T04:41:51;15.10;99.90
31084;DHT22;36333;51.382;0.016;2022-09-09T04:44:18;15.10;99.90
31084;DHT22;36333;51.382;0.016;2022-09-09T04:46:47;15.20;99.90
31084;DHT22;36333;51.382;0.016;2022-09-09T04:49:14;15.20;99.90
31084;DHT22;36333;51.382;0.016;2022-09-09T04:51:43;15.10;99.90
31084;DHT22;36333;51.382;0.016;2022-09-09T04:54:11;15.20;99.90
31084;DHT22;36333;51.382;0.016;2022-09-09T04:56:42;15.10;99.90
31084;DHT22;36333;51.382;0.016;2022-09-09T04:59:11;15.20;99.90
31084;DHT22;36333;51.382;0.016;2022-09-09T05:01:45;15.10;99.90
31084;DHT22;36333;51.382;0.016;2022-09-09T05:04:13;15.10;99.90
31084;DHT22;36333;51.382;0.016;2022-09-09T05:06:43;15.10;99.90
31084;DHT22;36333;51.382;0.016;2022-09-09T05:09:12;15.10;99.90
31084;DHT22;36333;51.382;0.016;2022-09-09T05:11:39;15.00;99.90
31084;DHT22;36333;51.382;0.016;2022-09-09T05:14:14;15.10;99.90
31084;DHT22;36333;51.382;0.016;2022-09-09T05:16:42;15.10;99.90
31084;DHT22;36333;51.382;0.016;2022-09-09T05:19:11;15.00;99.90
31084;DHT22;36333;51.382;0.016;2022-09-09T05:21:49;15.10;99.90
31084;DHT22;36333;51.382;0.016;2022-09-09T05:24:21;15.10;99.90
31084;DHT22;36333;51.382;0.016;2022-09-09T05:26:53;15.00;99.90
31084;DHT22;36333;51.382;0.016;2022-09-09T05:29:21;15.10;99.90
31084;DHT22;36333;51.382;0.016;2022-09-09T05:31:49;15.10;99.90
31084;DHT22;36333;51.382;0.016;2022-09-09T05:34:20;15.70;99.90
31084;DHT22;36333;51.382;0.016;2022-09-09T05:36:49;15.10;99.90
31084;DHT22;36333;51.382;0.016;2022-09-09T05:39:16;15.10;99.90
31084;DHT22;36333;51.382;0.016;2022-09-09T05:41:44;15.00;99.90
31084;DHT22;36333;51.382;0.016;2022-09-09T05:44:12;15.10;99.90
31084;DHT22;36333;51.382;0.016;2022-09-09T05:46:40;15.10;99.90
31084;DHT22;36333;51.382;0.016;2022-09-09T05:49:08;15.10;99.90
31084;DHT22;36333;51.382;0.016;2022-09-09T05:51:36;15.10;99.90
31084;DHT22;36333;51.382;0.016;2022-09-09T05:54:09;15.10;99.90
31084;DHT22;36333;51.382;0.016;2022-09-09T05:56:43;15.10;99.90
31084;DHT22;36333;51.382;0.016;2022-09-09T05:59:16;15.00;99.90
31084;DHT22;36333;51.382;0.016;2022-09-09T06:01:44;15.20;99.90
31084;DHT22;36333;51.382;0.016;2022-09-09T06:04:28;15.20;99.90
31084;DHT22;36333;51.382;0.016;2022-09-09T06:06:56;15.10;99.90
31084;DHT22;36333;51.382;0.016;2022-09-09T06:09:23;15.10;99.90
31084;DHT22;36333;51.382;0.016;2022-09-09T06:11:51;15.20;99.90
31084;DHT22;36333;51.382;0.016;2022-09-09T06:14:21;15.10;99.90
31084;DHT22;36333;51.382;0.016;2022-09-09T06:16:51;15.10;99.90
31084;DHT22;36333;51.382;0.016;2022-09-09T06:19:23;15.20;99.90
31084;DHT22;36333;51.382;0.016;2022-09-09T06:21:57;15.20;99.90
31084;DHT22;36333;51.382;0.016;2022-09-09T06:24:34;15.20;99.90
31084;DHT22;36333;51.382;0.016;2022-09-09T06:27:23;15.20;99.90
31084;DHT22;36333;51.382;0.016;2022-09-09T06:29:51;16.70;99.90
31084;DHT22;36333;51.382;0.016;2022-09-09T06:32:18;15.30;99.90
31084;DHT22;36333;51.382;0.016;2022-09-09T06:34:46;15.30;99.90
31084;DHT22;36333;51.382;0.016;2022-09-09T06:37:16;15.30;99.90
31084;DHT22;36333;51.382;0.016;2022-09-09T06:39:48;15.30;99.90
31084;DHT22;36333;51.382;0.016;2022-09-09T06:42:16;15.40;99.90
31084;DHT22;36333;51.382;0.016;2022-09-09T06:44:51;15.40;99.90
31084;DHT22;36333;51.382;0.016;2022-09-09T06:47:31;15.30;99.90
31084;DHT22;36333;51.382;0.016;2022-09-09T06:50:01;15.40;99.90
31084;DHT22;36333;51.382;0.016;2022-09-09T06:52:31;15.30;99.90
31084;DHT22;36333;51.382;0.016;2022-09-09T06:55:00;15.50;99.90
31084;DHT22;36333;51.382;0.016;2022-09-09T06:57:28;15.50;99.90
31084;DHT22;36333;51.382;0.016;2022-09-09T07:00:18;15.50;99.90
31084;DHT22;36333;51.382;0.016;2022-09-09T07:02:48;14.90;99.90
31084;DHT22;36333;51.382;0.016;2022-09-09T07:05:25;15.60;99.90
31084;DHT22;36333;51.382;0.016;2022-09-09T07:07:55;15.60;99.90
31084;DHT22;36333;51.382;0.016;2022-09-09T07:10:37;15.70;99.90
31084;DHT22;36333;51.382;0.016;2022-09-09T07:13:06;15.70;99.90
31084;DHT22;36333;51.382;0.016;2022-09-09T07:15:52;15.60;99.90
31084;DHT22;36333;51.382;0.016;2022-09-09T07:18:20;15.60;99.90
31084;DHT22;36333;51.382;0.016;2022-09-09T07:20:54;15.60;99.90
31084;DHT22;36333;51.382;0.016;2022-09-09T07:23:23;15.70;99.90
31084;DHT22;36333;51.382;0.016;2022-09-09T07:25:52;15.70;99.90
31084;DHT22;36333;51.382;0.016;2022-09-09T07:28:21;15.80;99.90
31084;DHT22;36333;51.382;0.016;2022-09-09T07:30:55;15.90;99.90
31084;DHT22;36333;51.382;0.016;2022-09-09T07:33:25;16.00;99.90
31084;DHT22;36333;51.382;0.016;2022-09-09T07:35:53;15.90;99.90
31084;DHT22;36333;51.382;0.016;2022-09-09T07:38:21;16.00;99.90
31084;DHT22;36333;51.382;0.016;2022-09-09T07:40:53;16.00;99.90
31084;DHT22;36333;51.382;0.016;2022-09-09T07:43:26;16.00;99.90
31084;DHT22;36333;51.382;0.016;2022-09-09T07:46:00;16.10;99.90
31084;DHT22;36333;51.382;0.016;2022-09-09T07:48:29;16.10;99.90
31084;DHT22;36333;51.382;0.016;2022-09-09T07:51:14;16.10;99.90
31084;DHT22;36333;51.382;0.016;2022-09-09T07:53:50;16.20;99.90
31084;DHT22;36333;51.382;0.016;2022-09-09T07:56:22;16.20;99.90
31084;DHT22;36333;51.382;0.016;2022-09-09T07:58:52;16.10;99.90
31084;DHT22;36333;51.382;0.016;2022-09-09T08:01:38;16.20;99.90
31084;DHT22;36333;51.382;0.016;2022-09-09T08:04:10;16.30;99.90
31084;DHT22;36333;51.382;0.016;2022-09-09T08:06:53;16.30;99.90
31084;DHT22;36333;51.382;0.016;2022-09-09T08:09:26;16.00;99.90
31084;DHT22;36333;51.382;0.016;2022-09-09T08:12:22;16.30;99.90
31084;DHT22;36333;51.382;0.016;2022-09-09T08:14:50;16.30;99.90
31084;DHT22;36333;51.382;0.016;2022-09-09T08:17:22;16.30;99.90
31084;DHT22;36333;51.382;0.016;2022-09-09T08:19:55;16.40;99.90
31084;DHT22;36333;51.382;0.016;2022-09-09T08:22:26;16.50;99.90
31084;DHT22;36333;51.382;0.016;2022-09-09T08:24:55;16.60;99.90
31084;DHT22;36333;51.382;0.016;2022-09-09T08:27:24;16.60;99.90
31084;DHT22;36333;51.382;0.016;2022-09-09T08:29:53;16.80;99.90
31084;DHT22;36333;51.382;0.016;2022-09-09T08:32:21;16.80;99.90
31084;DHT22;36333;51.382;0.016;2022-09-09T08:34:49;16.90;99.90
31084;DHT22;36333;51.382;0.016;2022-09-09T08:37:23;17.00;99.90
31084;DHT22;36333;51.382;0.016;2022-09-09T08:39:50;17.10;99.90
31084;DHT22;36333;51.382;0.016;2022-09-09T08:42:31;17.20;99.90
31084;DHT22;36333;51.382;0.016;2022-09-09T08:45:24;17.30;99.90
31084;DHT22;36333;51.382;0.016;2022-09-09T08:51:12;17.40;99.90
31084;DHT22;36333;51.382;0.016;2022-09-09T08:53:45;17.50;99.90
31084;DHT22;36333;51.382;0.016;2022-09-09T08:56:19;17.50;99.90
31084;DHT22;36333;51.382;0.016;2022-09-09T08:58:53;17.60;99.90
31084;DHT22;36333;51.382;0.016;2022-09-09T09:12:19;17.60;99.90
31084;DHT22;36333;51.382;0.016;2022-09-09T09:14:49;17.50;99.90
31084;DHT22;36333;51.382;0.016;2022-09-09T09:17:24;17.60;99.90
31084;DHT22;36333;51.382;0.016;2022-09-09T09:19:53;17.50;99.90
31084;DHT22;36333;51.382;0.016;2022-09-09T09:25:19;17.20;99.90
31084;DHT22;36333;51.382;0.016;2022-09-09T09:28:02;17.10;99.90
31084;DHT22;36333;51.382;0.016;2022-09-09T09:30:47;16.90;99.90
31084;DHT22;36333;51.382;0.016;2022-09-09T09:33:28;17.10;99.90
31084;DHT22;36333;51.382;0.016;2022-09-09T09:36:01;17.10;99.90
31084;DHT22;36333;51.382;0.016;2022-09-09T09:38:30;17.20;99.90
31084;DHT22;36333;51.382;0.016;2022-09-09T09:41:49;17.10;99.90
31084;DHT22;36333;51.382;0.016;2022-09-09T09:44:30;17.30;99.90
31084;DHT22;36333;51.382;0.016;2022-09-09T09:47:13;16.50;99.90
31084;DHT22;36333;51.382;0.016;2022-09-09T09:49:56;17.50;99.90
31084;DHT22;36333;51.382;0.016;2022-09-09T09:52:32;17.60;99.90
31084;DHT22;36333;51.382;0.016;2022-09-09T09:55:03;17.80;99.90
31084;DHT22;36333;51.382;0.016;2022-09-09T09:57:35;17.90;99.90
31084;DHT22;36333;51.382;0.016;2022-09-09T10:00:18;18.10;99.90
31084;DHT22;36333;51.382;0.016;2022-09-09T10:03:23;18.20;99.90
31084;DHT22;36333;51.382;0.016;2022-09-09T10:05:53;18.30;99.90
31084;DHT22;36333;51.382;0.016;2022-09-09T10:08:23;18.30;99.90
31084;DHT22;36333;51.382;0.016;2022-09-09T10:19:35;18.40;99.90
31084;DHT22;36333;51.382;0.016;2022-09-09T10:22:32;18.40;99.90
31084;DHT22;36333;51.382;0.016;2022-09-09T10:36:28;18.70;99.90
31084;DHT22;36333;51.382;0.016;2022-09-09T10:39:06;18.80;99.90
31084;DHT22;36333;51.382;0.016;2022-09-09T10:42:06;18.90;99.90
31084;DHT22;36333;51.382;0.016;2022-09-09T10:44:53;18.90;99.90
31084;DHT22;36333;51.382;0.016;2022-09-09T10:48:01;18.90;99.90
31084;DHT22;36333;51.382;0.016;2022-09-09T10:50:46;18.80;99.90
31084;DHT22;36333;51.382;0.016;2022-09-09T10:56:26;17.00;99.90
31084;DHT22;36333;51.382;0.016;2022-09-09T10:59:16;18.70;99.90
31084;DHT22;36333;51.382;0.016;2022-09-09T11:05:20;18.80;99.90
31084;DHT22;36333;51.382;0.016;2022-09-09T11:17:56;18.90;99.90
31084;DHT22;36333;51.382;0.016;2022-09-09T11:20:26;18.80;99.90
31084;DHT22;36333;51.382;0.016;2022-09-09T11:23:09;18.60;99.90
31084;DHT22;36333;51.382;0.016;2022-09-09T11:25:44;18.60;99.90
31084;DHT22;36333;51.382;0.016;2022-09-09T11:40:33;18.80;99.90
31084;DHT22;36333;51.382;0.016;2022-09-09T11:44:25;18.70;99.90
31084;DHT22;36333;51.382;0.016;2022-09-09T11:47:02;18.50;99.90
31084;DHT22;36333;51.382;0.016;2022-09-09T11:49:42;18.20;99.90
31084;DHT22;36333;51.382;0.016;2022-09-09T11:54:49;18.10;99.90
31084;DHT22;36333;51.382;0.016;2022-09-09T11:59:52;18.10;99.90
31084;DHT22;36333;51.382;0.016;2022-09-09T12:02:28;18.20;99.90
31084;DHT22;36333;51.382;0.016;2022-09-09T12:05:08;18.30;99.90
31084;DHT22;36333;51.382;0.016;2022-09-09T12:10:27;16.90;99.90
31084;DHT22;36333;51.382;0.016;2022-09-09T12:13:15;18.70;99.90
31084;DHT22;36333;51.382;0.016;2022-09-09T12:15:51;17.70;99.90
31084;DHT22;36333;51.382;0.016;2022-09-09T12:18:38;19.00;99.90
31084;DHT22;36333;51.382;0.016;2022-09-09T12:24:14;19.20;99.90
31084;DHT22;36333;51.382;0.016;2022-09-09T12:32:27;18.60;99.90
31084;DHT22;36333;51.382;0.016;2022-09-09T12:35:35;17.40;99.90
31084;DHT22;36333;51.382;0.016;2022-09-09T12:38:06;18.70;99.90
31084;DHT22;36333;51.382;0.016;2022-09-09T12:40:42;18.80;99.90
31084;DHT22;36333;51.382;0.016;2022-09-09T12:44:15;19.10;99.90
31084;DHT22;36333;51.382;0.016;2022-09-09T12:47:12;18.50;99.90
31084;DHT22;36333;51.382;0.016;2022-09-09T12:50:10;19.90;99.90
31084;DHT22;36333;51.382;0.016;2022-09-09T12:53:15;20.50;99.90
31084;DHT22;36333;51.382;0.016;2022-09-09T12:56:48;20.50;99.90
31084;DHT22;36333;51.382;0.016;2022-09-09T12:59:38;20.70;99.90
31084;DHT22;36333;51.382;0.016;2022-09-09T13:04:15;21.60;99.90
31084;DHT22;36333;51.382;0.016;2022-09-09T13:07:08;20.80;99.90
31084;DHT22;36333;51.382;0.016;2022-09-09T13:09:52;20.40;99.90
31084;DHT22;36333;51.382;0.016;2022-09-09T13:12:48;20.20;99.90
31084;DHT22;36333;51.382;0.016;2022-09-09T13:15:30;20.00;99.90
31084;DHT22;36333;51.382;0.016;2022-09-09T13:18:11;19.90;99.90
31084;DHT22;36333;51.382;0.016;2022-09-09T13:20:47;19.90;99.90
31084;DHT22;36333;51.382;0.016;2022-09-09T13:27:40;20.10;99.90
31084;DHT22;36333;51.382;0.016;2022-09-09T13:30:32;20.20;99.90
31084;DHT22;36333;51.382;0.016;2022-09-09T13:33:23;20.20;99.90
31084;DHT22;36333;51.382;0.016;2022-09-09T13:36:14;21.30;99.90
31084;DHT22;36333;51.382;0.016;2022-09-09T13:38:57;20.30;99.90
31084;DHT22;36333;51.382;0.016;2022-09-09T13:41:42;20.60;99.90
31084;DHT22;36333;51.382;0.016;2022-09-09T13:44:29;20.10;99.90
31084;DHT22;36333;51.382;0.016;2022-09-09T13:51:42;20.10;99.90
31084;DHT22;36333;51.382;0.016;2022-09-09T13:54:25;19.90;99.90
31084;DHT22;36333;51.382;0.016;2022-09-09T14:01:02;20.20;99.90
31084;DHT22;36333;51.382;0.016;2022-09-09T14:04:00;20.40;99.90
31084;DHT22;36333;51.382;0.016;2022-09-09T14:15:01;20.60;99.90
31084;DHT22;36333;51.382;0.016;2022-09-09T14:17:32;20.90;99.90
31084;DHT22;36333;51.382;0.016;2022-09-09T14:29:34;21.80;99.90
31084;DHT22;36333;51.382;0.016;2022-09-09T14:32:55;22.20;99.90
31084;DHT22;36333;51.382;0.016;2022-09-09T14:39:22;22.00;99.90
31084;DHT22;36333;51.382;0.016;2022-09-09T14:43:21;21.70;99.50
31084;DHT22;36333;51.382;0.016;2022-09-09T14:46:58;21.60;99.90
31084;DHT22;36333;51.382;0.016;2022-09-09T14:50:35;21.50;98.40
31084;DHT22;36333;51.382;0.016;2022-09-09T15:29:51;19.80;99.90
31084;DHT22;36333;51.382;0.016;2022-09-09T15:32:18;19.70;99.90
31084;DHT22;36333;51.382;0.016;2022-09-09T15:34:46;19.70;99.90
31084;DHT22;36333;51.382;0.016;2022-09-09T15:37:14;19.70;99.90
31084;DHT22;36333;51.382;0.016;2022-09-09T15:39:45;19.70;99.90
31084;DHT22;36333;51.382;0.016;2022-09-09T15:42:43;18.20;99.90
31084;DHT22;36333;51.382;0.016;2022-09-09T15:45:48;19.70;99.90
31084;DHT22;36333;51.382;0.016;2022-09-09T15:52:09;19.60;99.90
31084;DHT22;36333;51.382;0.016;2022-09-09T15:55:50;19.50;99.90
31084;DHT22;36333;51.382;0.016;2022-09-09T15:59:45;19.40;99.90
31084;DHT22;36333;51.382;0.016;2022-09-09T16:05:09;18.50;99.90
31084;DHT22;36333;51.382;0.016;2022-09-09T16:07:52;18.40;99.90
31084;DHT22;36333;51.382;0.016;2022-09-09T16:10:34;18.20;99.90
31084;DHT22;36333;51.382;0.016;2022-09-09T16:13:16;18.00;99.90
31084;DHT22;36333;51.382;0.016;2022-09-09T16:15:44;17.90;99.90
31084;DHT22;36333;51.382;0.016;2022-09-09T16:18:17;18.20;99.90
31084;DHT22;36333;51.382;0.016;2022-09-09T16:20:52;17.60;99.90
31084;DHT22;36333;51.382;0.016;2022-09-09T16:23:20;17.30;99.90
31084;DHT22;36333;51.382;0.016;2022-09-09T16:25:54;17.00;99.90
31084;DHT22;36333;51.382;0.016;2022-09-09T16:28:22;16.70;99.90
31084;DHT22;36333;51.382;0.016;2022-09-09T16:30:50;16.50;99.90
31084;DHT22;36333;51.382;0.016;2022-09-09T16:33:18;16.50;99.90
31084;DHT22;36333;51.382;0.016;2022-09-09T16:35:45;16.50;99.90
31084;DHT22;36333;51.382;0.016;2022-09-09T16:38:14;16.60;99.90
31084;DHT22;36333;51.382;0.016;2022-09-09T16:40:41;16.70;99.90
31084;DHT22;36333;51.382;0.016;2022-09-09T16:43:09;16.80;99.90
31084;DHT22;36333;51.382;0.016;2022-09-09T16:45:43;16.90;99.90
31084;DHT22;36333;51.382;0.016;2022-09-09T16:48:12;16.90;99.90
31084;DHT22;36333;51.382;0.016;2022-09-09T16:50:39;16.90;99.90
31084;DHT22;36333;51.382;0.016;2022-09-09T16:53:07;16.90;99.90
31084;DHT22;36333;51.382;0.016;2022-09-09T16:55:42;16.90;99.90
31084;DHT22;36333;51.382;0.016;2022-09-09T16:58:12;16.80;99.90
31084;DHT22;36333;51.382;0.016;2022-09-09T17:00:40;16.80;99.90
31084;DHT22;36333;51.382;0.016;2022-09-09T17:03:14;16.80;99.90
31084;DHT22;36333;51.382;0.016;2022-09-09T17:05:42;16.80;99.90
31084;DHT22;36333;51.382;0.016;2022-09-09T17:08:11;16.80;99.90
31084;DHT22;36333;51.382;0.016;2022-09-09T17:10:42;16.80;99.90
31084;DHT22;36333;51.382;0.016;2022-09-09T17:13:10;16.80;99.90
31084;DHT22;36333;51.382;0.016;2022-09-09T17:15:41;16.90;99.90
31084;DHT22;36333;51.382;0.016;2022-09-09T17:18:11;16.90;99.90
31084;DHT22;36333;51.382;0.016;2022-09-09T17:20:40;17.00;99.90
31084;DHT22;36333;51.382;0.016;2022-09-09T17:23:13;17.10;99.90
31084;DHT22;36333;51.382;0.016;2022-09-09T17:25:42;17.10;99.90
31084;DHT22;36333;51.382;0.016;2022-09-09T17:28:13;17.20;99.90
31084;DHT22;36333;51.382;0.016;2022-09-09T17:30:40;17.20;99.90
31084;DHT22;36333;51.382;0.016;2022-09-09T17:33:08;17.20;99.90
31084;DHT22;36333;51.382;0.016;2022-09-09T17:35:35;17.20;99.90
31084;DHT22;36333;51.382;0.016;2022-09-09T17:38:03;17.10;99.90
31084;DHT22;36333;51.382;0.016;2022-09-09T17:40:30;17.10;99.90
31084;DHT22;36333;51.382;0.016;2022-09-09T17:42:58;17.00;99.90
31084;DHT22;36333;51.382;0.016;2022-09-09T17:45:25;16.90;99.90
31084;DHT22;36333;51.382;0.016;2022-09-09T17:47:57;16.90;99.90
31084;DHT22;36333;51.382;0.016;2022-09-09T17:50:25;16.80;99.90
31084;DHT22;36333;51.382;0.016;2022-09-09T17:52:52;16.70;99.90
31084;DHT22;36333;51.382;0.016;2022-09-09T17:55:20;16.60;99.90
31084;DHT22;36333;51.382;0.016;2022-09-09T17:57:48;16.50;99.90
31084;DHT22;36333;51.382;0.016;2022-09-09T18:00:16;16.60;99.90
31084;DHT22;36333;51.382;0.016;2022-09-09T18:02:43;16.50;99.90
31084;DHT22;36333;51.382;0.016;2022-09-09T18:05:12;16.50;99.90
31084;DHT22;36333;51.382;0.016;2022-09-09T18:07:39;16.50;99.90
31084;DHT22;36333;51.382;0.016;2022-09-09T18:10:07;16.50;99.90
31084;DHT22;36333;51.382;0.016;2022-09-09T18:12:35;16.50;99.90
31084;DHT22;36333;51.382;0.016;2022-09-09T18:15:02;16.50;99.90
31084;DHT22;36333;51.382;0.016;2022-09-09T18:17:34;16.40;99.90
31084;DHT22;36333;51.382;0.016;2022-09-09T18:20:05;16.30;99.90
31084;DHT22;36333;51.382;0.016;2022-09-09T18:22:33;16.30;99.90
31084;DHT22;36333;51.382;0.016;2022-09-09T18:25:01;16.30;99.90
31084;DHT22;36333;51.382;0.016;2022-09-09T18:27:28;16.30;99.90
31084;DHT22;36333;51.382;0.016;2022-09-09T18:29:56;16.20;99.90
31084;DHT22;36333;51.382;0.016;2022-09-09T18:32:26;16.10;99.90
31084;DHT22;36333;51.382;0.016;2022-09-09T18:34:56;16.00;99.90
31084;DHT22;36333;51.382;0.016;2022-09-09T18:37:25;16.00;99.90
31084;DHT22;36333;51.382;0.016;2022-09-09T18:39:53;15.90;99.90
31084;DHT22;36333;51.382;0.016;2022-09-09T18:42:20;15.90;99.90
31084;DHT22;36333;51.382;0.016;2022-09-09T18:44:48;15.80;99.90
31084;DHT22;36333;51.382;0.016;2022-09-09T18:47:15;15.70;99.90
31084;DHT22;36333;51.382;0.016;2022-09-09T18:49:44;15.80;99.90
31084;DHT22;36333;51.382;0.016;2022-09-09T18:52:13;15.70;99.90
31084;DHT22;36333;51.382;0.016;2022-09-09T18:54:41;15.70;99.90
31084;DHT22;36333;51.382;0.016;2022-09-09T18:57:12;15.70;99.90
31084;DHT22;36333;51.382;0.016;2022-09-09T18:59:39;15.70;99.90
31084;DHT22;36333;51.382;0.016;2022-09-09T19:02:09;15.70;99.90
31084;DHT22;36333;51.382;0.016;2022-09-09T19:04:38;15.60;99.90
31084;DHT22;36333;51.382;0.016;2022-09-09T19:07:06;15.60;99.90
31084;DHT22;36333;51.382;0.016;2022-09-09T19:09:33;15.50;99.90
31084;DHT22;36333;51.382;0.016;2022-09-09T19:12:02;15.50;99.90
31084;DHT22;36333;51.382;0.016;2022-09-09T19:14:30;15.40;99.90
31084;DHT22;36333;51.382;0.016;2022-09-09T19:16:58;15.30;99.90
31084;DHT22;36333;51.382;0.016;2022-09-09T19:19:28;15.30;99.90
31084;DHT22;36333;51.382;0.016;2022-09-09T19:21:56;15.30;99.90
31084;DHT22;36333;51.382;0.016;2022-09-09T19:24:25;15.30;99.90
31084;DHT22;36333;51.382;0.016;2022-09-09T19:26:56;15.30;99.90
31084;DHT22;36333;51.382;0.016;2022-09-09T19:29:26;15.20;99.90
31084;DHT22;36333;51.382;0.016;2022-09-09T19:31:55;15.20;99.90
31084;DHT22;36333;51.382;0.016;2022-09-09T19:34:44;15.20;99.90
31084;DHT22;36333;51.382;0.016;2022-09-09T19:37:11;15.10;99.90
31084;DHT22;36333;51.382;0.016;2022-09-09T19:39:45;15.00;99.90
31084;DHT22;36333;51.382;0.016;2022-09-09T19:42:14;15.20;99.90
31084;DHT22;36333;51.382;0.016;2022-09-09T19:44:46;15.10;99.90
31084;DHT22;36333;51.382;0.016;2022-09-09T19:47:13;15.10;99.90
31084;DHT22;36333;51.382;0.016;2022-09-09T19:49:41;15.10;99.90
31084;DHT22;36333;51.382;0.016;2022-09-09T19:52:20;15.20;99.90